Flight Track Log - Related Links

Times and Time Zones

All times are in EST time to prevent confusion due to time zone crossing. See the N9464M flight status page for this flight to view local times or setup timezone preferences in your user account.

Time Position Orientation Groundspeed Altitude Reporting Facility
EST Latitude Longitude Course Direction KTS MPH feet Rate Location/Type
Tue 11:09:05 AM 25.2069 -78.4000 295° West 169 194 6,400  Level Miami Center
Tue 11:10:05 AM 25.2214 -78.4347 295° West 143 165 6,500  Climbing Miami Center
Tue 11:11:05 AM 25.2356 -78.4717 293° West 136 157 6,400 -150 Descending Miami Center
Tue 11:12:05 AM 25.2497 -78.5086 293° West 131 151 6,200 -200 Descending Miami Center
Tue 11:13:05 AM 25.2639 -78.5456 293° West 131 151 6,000 -200 Descending Miami Center
Tue 11:14:05 AM 25.2867 -78.5825 304° West 131 151 5,800 -50 Descending Miami Center
Tue 11:15:05 AM 25.2925 -78.6147 281° West 131 151 5,900  Climbing Miami Center
Tue 11:16:05 AM 25.3128 -78.6564 298° West 131 151 5,800 -100 Descending Miami Center
Tue 11:17:05 AM 25.3375 -78.6867 312° West 131 151 5,700  Descending Miami Center
Tue 11:18:05 AM 25.3517 -78.7239 293° West 136 157 5,800 50 Climbing Miami Center
Tue 11:19:05 AM 25.3700 -78.7586 300° West 136 157 5,800  Level Miami Center
Tue 11:20:05 AM 25.3864 -78.7933 298° West 136 157 5,800  Level Miami Center
Tue 11:21:05 AM 25.4069 -78.8236 307° West 136 157 5,800  Level Miami Center
Tue 11:22:05 AM 25.4253 -78.8583 300° West 136 157 5,800  Level Miami Center
Tue 11:23:05 AM 25.4456 -78.8931 303° West 136 157 5,800  Level Miami Center
Tue 11:24:05 AM 25.4639 -78.9258 302° West 131 151 5,800  Level Miami Center
Tue 11:25:05 AM 25.4864 -78.9606 306° West 136 157 5,800  Level Miami Center
Tue 11:26:05 AM 25.5089 -78.9933 307° West 136 157 5,800  Level Miami Center
Tue 11:27:05 AM 25.5272 -79.0281 300° West 136 157 5,800  Level Miami Center
Tue 11:28:05 AM 25.5331 -79.0650 280° West 136 157 5,800  Level Miami Center
Tue 11:29:05 AM 25.5639 -79.0978 316° Northwest 136 157 5,800  Level Miami Center
Tue 11:30:05 AM 25.5842 -79.1306 304° West 136 157 5,800  Level Miami Center
Tue 11:31:05 AM 25.5983 -79.1675 293° West 130 150 5,800  Level Miami Center
Tue 11:32:05 AM 25.6186 -79.2003 304° West 130 150 5,800  Level Miami Center
Tue 11:33:05 AM 25.6347 -79.2375 296° West 130 150 5,800 50 Level Miami Center
Tue 11:34:05 AM 25.6550 -79.2747 301° West 135 155 5,900 100 Climbing Miami Center
Tue 11:35:05 AM 25.6733 -79.3097 300° West 135 155 6,000 -250 Climbing Miami Center
Tue 11:36:05 AM 25.6914 -79.3492 297° West 140 161 5,400 -600 Descending Miami Center
Tue 11:37:05 AM 25.7136 -79.3889 302° West 140 161 4,800 -600 Descending Miami Center
Tue 11:38:05 AM 25.7278 -79.4283 292° West 140 161 4,200 -500 Descending Miami Center
Tue 11:39:05 AM 25.7561 -79.4728 305° West 146 168 3,800 -150 Descending Miami Center
Tue 11:40:05 AM 25.7764 -79.5103 301° West 146 168 3,900  Climbing Miami Center
Tue 11:40:41 AM 25.7886 -79.5311 303° West 136 157 3,800 -100 Descending Miami Center
Tue 11:41:05 AM 25.7944 -79.5428 299° West 140 161 3,800  Level Miami Center
Tue 11:42:01 AM 25.8125 -79.5825 297° West 140 161 3,800 100 Level Miami Center
Tue 11:42:05 AM 25.8128 -79.5803 82° East 140 161 3,900  Climbing Miami Center
Tue 11:43:02 AM 25.8328 -79.6222 298° West 140 161 3,800  Descending Miami Center
Tue 11:43:05 AM 25.8350 -79.6178 61° Northeast 140 161 3,900  Climbing Miami Center
Tue 11:43:57 AM 25.8508 -79.6550 295° West 139 160 3,800  Descending Miami Center
Tue 11:44:05 AM 25.8553 -79.6528 24° Northeast 140 161 3,900  Climbing Miami Center
Tue 11:44:58 AM 25.8733 -79.6900 298° West 139 160 3,800  Descending Miami Center
Tue 11:45:05 AM 25.8753 -79.6903 353° North 140 161 3,900  Climbing Miami Center
Tue 11:45:59 AM 25.8914 -79.7297 294° West 140 161 3,800  Descending Miami Center
Tue 11:46:05 AM 25.8956 -79.7322 332° Northwest 134 154 3,900 91 Climbing Miami Center
Tue 11:47:05 AM 25.9156 -79.7697 301° West 139 160 3,900 -98 Level Miami Center
Tue 11:47:06 AM 25.9114 -79.7742 224° Southwest 140 161 3,800  Descending Miami Center
Tue 11:48:05 AM 25.9358 -79.8072 309° West 139 160 3,900 51 Climbing Miami Center
Tue 11:49:03 AM 25.9433 -79.8489 281° West 134 154 3,900 100 Level Miami Center
Tue 11:49:05 AM 25.9453 -79.8444 64° Northeast 133 153 4,000 97 Climbing Miami Center
Tue 11:50:05 AM 25.9528 -79.8861 281° West 133 153 4,000 -105 Level Miami Center
Tue 11:50:59 AM 25.9564 -79.9256 276° West 138 159 3,800 -149 Descending Miami Center
Tue 11:52:06 AM 25.9658 -79.9719 283° West 141 162 3,700  Descending Miami Center
Tue 11:53:07 AM 25.9711 -80.0136 278° West 136 157 3,800 155 Climbing Miami Center
Tue 11:54:02 AM 25.9786 -80.0508 283° West 133 153 4,000 155 Climbing Miami Center
Tue 11:55:03 AM 25.9861 -80.0928 281° West 132 152 4,100 -49 Climbing Miami Center
Tue 11:56:04 AM 25.9956 -80.1344 284° West 141 162 3,900 -197 Descending Miami Center
Tue 11:57:05 AM 25.9947 -80.1783 269° West 134 154 3,700  Descending Miami Center
Tue 11:58:12 AM 25.9956 -80.2247 271° West 132 152 3,900 98 Climbing Miami Center
Tue 11:59:07 AM 25.9947 -80.2617 269° West 130 150 3,900 -49 Level Miami Center
Tue 12:00:14 PM 25.9939 -80.3056 269° West 137 158 3,800 -47 Descending Miami Center
Tue 12:01:15 PM 25.9969 -80.3472 275° West 135 155 3,800 103 Level Miami Center
Tue 12:02:11 PM 26.0022 -80.3842 279° West 125 144 4,000 52 Climbing Miami Center
Tue 12:03:11 PM 26.0056 -80.4258 275° West 129 148 3,900 -98 Descending Miami Center
Tue 12:04:13 PM 26.0128 -80.4700 280° West 138 159 3,800  Descending Miami Center
Tue 12:05:20 PM 26.0139 -80.5142 272° West 129 148 3,900 47 Climbing Miami Center
Tue 12:06:21 PM 26.0189 -80.5558 278° West 138 159 3,900  Level Miami Center
Tue 12:07:22 PM 26.0242 -80.6000 278° West 135 155 3,900 -43 Level Miami Center
Tue 12:08:41 PM 26.0311 -80.6511 279° West 136 157 3,800 -47 Descending Miami Center
Tue 12:09:30 PM 26.0386 -80.6883 283° West 139 160 3,800  Level Miami Center
Tue 12:09:41 PM 26.0406 -80.6883 360° North 136 157 3,800  Level Miami Center
Tue 12:10:25 PM 26.0439 -80.7253 276° West 136 157 3,800 100 Level Miami Center
Tue 12:10:41 PM 26.0478 -80.7300 313° West 136 157 3,900  Climbing Miami Center
Tue 12:11:41 PM 26.0636 -80.7653 297° West 136 157 3,800 -50 Descending Miami Center
Tue 12:12:41 PM 26.0750 -80.8097 286° West 136 157 3,800 50 Level Miami Center
Tue 12:13:41 PM 26.0822 -80.8492 282° West 136 157 3,900 50 Climbing Miami Center
Tue 12:14:41 PM 26.0833 -80.8908 272° West 136 157 3,900  Level Miami Center
Tue 12:15:41 PM 26.0906 -80.9306 281° West 136 157 3,900  Level Miami Center
Tue 12:16:41 PM 26.0997 -80.9700 285° West 136 157 3,900 -50 Level Miami Center
Tue 12:17:41 PM 26.1050 -81.0119 278° West 136 157 3,800 -50 Descending Miami Center
Tue 12:18:41 PM 26.1122 -81.0492 282° West 147 169 3,800 50 Level Miami Center
Tue 12:19:41 PM 26.1214 -81.0889 284° West 142 163 3,900 50 Climbing Miami Center
Tue 12:20:41 PM 26.1244 -81.1281 275° West 142 163 3,900 -50 Level Miami Center
Tue 12:21:41 PM 26.1294 -81.1722 277° West 142 163 3,800 -150 Descending Miami Center
Tue 12:22:41 PM 26.1325 -81.2142 275° West 142 163 3,600  Descending Miami Center
Tue 12:23:41 PM 26.1356 -81.2536 275° West 142 163 3,800 150 Climbing Miami Center
Tue 12:24:41 PM 26.1364 -81.2953 271° West 142 163 3,900 -200 Climbing Miami Center
Tue 12:25:41 PM 26.1411 -81.3417 276° West 142 163 3,400 -400 Descending Miami Center
Tue 12:26:41 PM 26.1458 -81.3881 276° West 147 169 3,100 -250 Descending Miami Center
Tue 12:27:41 PM 26.1489 -81.4322 274° West 147 169 2,900 -250 Descending Miami Center
Tue 12:28:41 PM 26.1494 -81.4783 271° West 147 169 2,600 -350 Descending Miami Center
Tue 12:29:41 PM 26.1500 -81.5225 271° West 147 169 2,200 -300 Descending Miami Center
Tue 12:30:41 PM 26.1531 -81.5619 275° West 141 162 2,000 -300 Descending Miami Center
Tue 12:31:41 PM 26.1556 -81.6083 273° West 146 168 1,600 -400 Descending Miami Center
Tue 12:33:00 PM 26.1390 -81.6641 252° West  Level FlightAware Approximate
Tue 12:40:00 PM 26.1500 -81.7667 283° West  Level FlightAware Approximate
Tue 12:41:00 PM 26.1524 -81.7756 283° West  Level Estimated
Tue 12:42:00 PM 26.1524 -81.7756 283° West  Level Estimated
Tue 12:43:00 PM 26.1524 -81.7756 283° West  Level Estimated
Tue 12:44:00 PM 26.1524 -81.7756 283° West  Level Estimated

Login

Don't have an account? Register now (free) for customized features, flight alerts, and more!